createdAt,value
2018-03-01T00:02:23.146Z,98320.62
2018-03-01T00:04:51.446Z,98330.75
2018-03-01T00:07:19.755Z,98330.83
2018-03-01T00:09:48.564Z,98323.61
2018-03-01T00:12:16.875Z,98329.59
2018-03-01T00:14:45.181Z,98311.98
2018-03-01T00:17:13.483Z,98310.11
2018-03-01T00:19:41.756Z,98303.43
2018-03-01T00:22:10.056Z,98311.02
2018-03-01T00:24:38.332Z,98309.73
2018-03-01T00:27:06.663Z,98320.08
2018-03-01T00:29:34.916Z,98317.09
2018-03-01T00:32:03.215Z,98304.77
2018-03-01T00:34:31.491Z,98299.02
2018-03-01T00:36:59.800Z,98304.39
2018-03-01T00:39:28.106Z,98311.70
2018-03-01T00:41:56.423Z,98304.41
2018-03-01T00:44:24.703Z,98298.60
2018-03-01T00:46:53.012Z,98304.85
2018-03-01T00:49:21.312Z,98293.98
2018-03-01T00:51:49.598Z,98285.95
2018-03-01T00:54:17.905Z,98283.83
2018-03-01T00:56:46.177Z,98275.31
2018-03-01T00:59:14.475Z,98272.09
2018-03-01T01:01:42.795Z,98273.87
2018-03-01T01:04:11.112Z,98263.63
2018-03-01T01:06:39.460Z,98260.09
2018-03-01T01:09:07.772Z,98253.83
2018-03-01T01:11:36.051Z,98249.38
2018-03-01T01:14:05.081Z,98243.81
2018-03-01T01:16:33.360Z,98239.63
2018-03-01T01:19:01.653Z,98241.19
2018-03-01T01:21:29.965Z,98243.05
2018-03-01T01:23:58.254Z,98243.21
2018-03-01T01:26:26.528Z,98226.82
2018-03-01T01:28:54.799Z,98224.14
2018-03-01T01:31:23.303Z,98224.27
2018-03-01T01:33:51.577Z,98226.22
2018-03-01T01:36:19.879Z,98224.53
2018-03-01T01:38:48.146Z,98220.38
2018-03-01T01:41:16.435Z,98214.58
2018-03-01T01:43:44.725Z,98215.89
2018-03-01T01:46:13.040Z,98207.84
2018-03-01T01:48:41.333Z,98204.66
2018-03-01T01:51:09.635Z,98191.63
2018-03-01T01:53:37.931Z,98197.73
2018-03-01T01:56:06.242Z,98196.47
2018-03-01T01:58:34.545Z,98187.28
2018-03-01T02:01:02.816Z,98191.52
2018-03-01T02:03:31.487Z,98187.65
2018-03-01T02:05:59.736Z,98189.83
2018-03-01T02:08:28.079Z,98175.03
2018-03-01T02:10:56.367Z,98180.80
2018-03-01T02:13:24.686Z,98169.19
2018-03-01T02:15:52.966Z,98174.99
2018-03-01T02:18:21.260Z,98173.63
2018-03-01T02:20:49.539Z,98173.31
2018-03-01T02:23:17.856Z,98172.77
2018-03-01T02:25:46.139Z,98176.92
2018-03-01T02:28:14.445Z,98167.22
2018-03-01T02:30:42.725Z,98154.53
2018-03-01T02:33:11.014Z,98140.67
2018-03-01T02:35:39.291Z,98146.67
2018-03-01T02:38:07.607Z,98131.12
2018-03-01T02:40:41.804Z,98139.62
2018-03-01T02:43:10.080Z,98129.30
2018-03-01T02:45:38.389Z,98117.06
2018-03-01T02:48:06.675Z,98132.80
2018-03-01T02:50:34.991Z,98131.00
2018-03-01T02:53:03.268Z,98123.58
2018-03-01T02:55:31.567Z,98117.02
2018-03-01T02:57:59.832Z,98118.36
2018-03-01T03:00:28.141Z,98121.41
2018-03-01T03:02:56.400Z,98123.86
2018-03-01T03:05:24.705Z,98124.59
2018-03-01T03:07:53.004Z,98114.97
2018-03-01T03:10:22.214Z,98117.41
2018-03-01T03:12:50.598Z,98114.41
2018-03-01T03:15:18.912Z,98121.53
2018-03-01T03:17:47.697Z,98112.75
2018-03-01T03:20:15.972Z,98105.02
2018-03-01T03:22:44.272Z,98112.05
2018-03-01T03:25:12.567Z,98117.45
2018-03-01T03:27:40.863Z,98093.82
2018-03-01T03:30:09.143Z,98107.28
2018-03-01T03:32:37.443Z,98103.69
2018-03-01T03:35:05.708Z,98098.19
2018-03-01T03:37:34.459Z,98080.78
2018-03-01T03:40:02.746Z,98090.64
2018-03-01T03:42:31.035Z,98090.52
2018-03-01T03:44:59.333Z,98079.89
2018-03-01T03:47:27.645Z,98075.61
2018-03-01T03:49:55.972Z,98069.39
2018-03-01T03:52:24.264Z,98071.25
2018-03-01T03:54:52.563Z,98075.01
2018-03-01T03:57:20.861Z,98069.08
2018-03-01T03:59:49.172Z,98059.65
2018-03-01T04:02:17.448Z,98061.94
2018-03-01T04:04:45.760Z,98057.69
2018-03-01T04:07:14.045Z,98047.67
2018-03-01T04:09:42.333Z,98055.17
2018-03-01T04:12:10.633Z,98040.03
2018-03-01T04:14:39.040Z,98063.17
2018-03-01T04:17:07.307Z,98059.36
2018-03-01T04:19:35.637Z,98051.45
2018-03-01T04:22:04.779Z,98049.66
2018-03-01T04:24:33.077Z,98044.92
2018-03-01T04:27:01.367Z,98035.81
2018-03-01T04:29:29.681Z,98034.70
2018-03-01T04:31:57.962Z,98018.19
2018-03-01T04:34:26.287Z,98025.09
2018-03-01T04:36:54.593Z,98025.27
2018-03-01T04:39:22.896Z,98019.37
2018-03-01T04:41:51.193Z,98019.67
2018-03-01T04:44:19.484Z,98022.64
2018-03-01T04:46:47.779Z,98014.51
2018-03-01T04:49:16.042Z,98012.79
2018-03-01T04:51:44.311Z,98003.95
2018-03-01T04:54:12.631Z,98009.32
2018-03-01T04:56:40.904Z,98004.72
2018-03-01T04:59:09.238Z,98010.06
2018-03-01T05:01:37.519Z,98008.17
2018-03-01T05:04:05.958Z,98009.56
2018-03-01T05:06:34.189Z,98003.19
2018-03-01T05:09:02.498Z,97990.88
2018-03-01T05:11:30.774Z,97999.54
2018-03-01T05:13:59.103Z,97995.05
2018-03-01T05:16:27.380Z,97982.63
2018-03-01T05:18:55.659Z,97991.10
2018-03-01T05:21:23.965Z,97986.77
2018-03-01T05:23:52.226Z,97981.48
2018-03-01T05:26:20.544Z,97978.61
2018-03-01T05:28:48.821Z,97977.34
2018-03-01T05:31:17.164Z,97981.37
2018-03-01T05:33:45.523Z,97977.48
2018-03-01T05:36:13.833Z,97973.22
2018-03-01T05:38:42.128Z,97982.19
2018-03-01T05:41:10.410Z,97981.33
2018-03-01T05:43:38.733Z,97960.56
2018-03-01T05:46:07.023Z,97974.52
2018-03-01T05:48:35.334Z,97967.91
2018-03-01T05:51:03.589Z,97964.91
2018-03-01T05:53:31.905Z,97971.94
2018-03-01T05:56:00.198Z,97968.35
2018-03-01T05:58:28.702Z,97959.23
2018-03-01T06:00:57.014Z,97960.54
2018-03-01T06:03:25.312Z,97958.77
2018-03-01T06:05:53.580Z,97965.90
2018-03-01T06:08:21.901Z,97967.38
2018-03-01T06:10:50.187Z,97971.06
2018-03-01T06:13:18.461Z,97977.56
2018-03-01T06:15:46.777Z,97948.34
2018-03-01T06:18:15.055Z,97980.33
2018-03-01T06:20:43.369Z,97973.48
2018-03-01T06:23:11.642Z,97973.97
2018-03-01T06:25:39.975Z,97961.47
2018-03-01T06:28:08.302Z,97958.29
2018-03-01T06:30:36.586Z,97970.19
2018-03-01T06:33:04.962Z,97960.97
2018-03-01T06:35:33.229Z,97966.31
2018-03-01T06:38:01.536Z,97957.79
2018-03-01T06:40:29.794Z,97954.00
2018-03-01T06:42:58.124Z,97955.89
2018-03-01T06:45:26.382Z,97956.01
2018-03-01T06:47:54.744Z,97946.57
2018-03-01T06:50:23.044Z,97953.73
2018-03-01T06:52:51.329Z,97956.52
2018-03-01T06:55:19.681Z,97962.53
2018-03-01T06:57:47.946Z,97956.50
2018-03-01T07:00:16.247Z,97957.34
2018-03-01T07:02:44.557Z,97956.15
2018-03-01T07:05:12.900Z,97951.00
2018-03-01T07:07:41.184Z,97953.61
2018-03-01T07:10:09.509Z,97945.94
2018-03-01T07:12:37.822Z,97945.61
2018-03-01T07:15:06.122Z,97953.12
2018-03-01T07:17:35.594Z,97938.94
2018-03-01T07:20:05.384Z,97951.73
2018-03-01T07:22:33.662Z,97954.29
2018-03-01T07:25:01.933Z,97949.16
2018-03-01T07:27:30.231Z,97949.05
2018-03-01T07:29:58.521Z,97951.52
2018-03-01T07:32:26.833Z,97958.37
2018-03-01T07:34:55.106Z,97945.98
2018-03-01T07:37:23.428Z,97951.74
2018-03-01T07:39:51.708Z,97943.00
2018-03-01T07:42:20.065Z,97938.31
2018-03-01T07:44:48.382Z,97933.06
2018-03-01T07:47:16.667Z,97926.13
2018-03-01T07:49:44.972Z,97914.11
2018-03-01T07:52:13.402Z,97919.27
2018-03-01T07:54:41.896Z,97920.77
2018-03-01T07:57:10.232Z,97922.73
2018-03-01T07:59:38.527Z,97910.14
2018-03-01T08:02:06.908Z,97911.13
2018-03-01T08:04:35.222Z,97902.19
2018-03-01T08:07:03.519Z,97898.82
2018-03-01T08:09:31.787Z,97909.73
2018-03-01T08:12:00.081Z,97902.69
2018-03-01T08:14:28.615Z,97894.88
2018-03-01T08:16:56.912Z,97896.75
2018-03-01T08:19:25.256Z,97861.50
2018-03-01T08:21:53.567Z,97887.11
2018-03-01T08:24:21.817Z,97896.54
2018-03-01T08:26:50.262Z,97889.05
2018-03-01T08:29:18.620Z,97883.23
2018-03-01T08:31:46.919Z,97875.69
2018-03-01T08:34:15.221Z,97890.49
2018-03-01T08:36:43.500Z,97888.27
2018-03-01T08:39:11.852Z,97892.64
2018-03-01T08:41:40.127Z,97886.59
2018-03-01T08:44:08.443Z,97877.23
2018-03-01T08:46:36.727Z,97867.05
2018-03-01T08:49:05.075Z,97859.42
2018-03-01T08:51:33.365Z,97876.34
2018-03-01T08:54:01.652Z,97862.87
2018-03-01T08:56:29.998Z,97862.99
2018-03-01T08:58:58.352Z,97857.23
2018-03-01T09:01:26.732Z,97868.34
2018-03-01T09:03:55.887Z,97867.11
2018-03-01T09:06:24.231Z,97856.77
2018-03-01T09:08:52.634Z,97857.23
2018-03-01T09:11:20.899Z,97836.68
2018-03-01T09:13:49.188Z,97830.65
2018-03-01T09:16:17.475Z,97838.13
2018-03-01T09:18:45.740Z,97845.52
2018-03-01T09:21:14.043Z,97832.07
2018-03-01T09:23:42.508Z,97798.66
2018-03-01T09:26:10.864Z,97839.91
2018-03-01T09:28:39.166Z,97835.91
2018-03-01T09:31:07.444Z,97810.72
2018-03-01T09:33:35.770Z,97830.77
2018-03-01T09:36:04.327Z,97823.50
2018-03-01T09:38:32.636Z,97829.67
2018-03-01T09:41:03.480Z,97807.97
2018-03-01T09:43:31.884Z,97813.29
2018-03-01T09:46:00.158Z,97814.14
2018-03-01T09:48:29.670Z,97818.08
2018-03-01T09:50:58.056Z,97822.06
2018-03-01T09:56:05.572Z,97800.25
2018-03-01T09:58:33.980Z,97806.09
2018-03-01T10:01:02.278Z,97794.68
2018-03-01T10:03:30.600Z,97802.67
2018-03-01T10:05:58.966Z,97790.00
2018-03-01T10:08:27.327Z,97804.91
2018-03-01T10:10:55.612Z,97811.95
2018-03-01T10:13:23.932Z,97812.91
2018-03-01T10:15:54.662Z,97812.64
2018-03-01T10:18:22.953Z,97810.91
2018-03-01T10:20:51.828Z,97808.38
2018-03-01T10:23:20.191Z,97802.74
2018-03-01T10:25:48.649Z,97778.91
2018-03-01T10:28:16.859Z,97795.65
2018-03-01T10:30:47.948Z,97806.05
2018-03-01T10:33:16.173Z,97797.05
2018-03-01T10:35:44.673Z,97793.95
2018-03-01T10:38:12.958Z,97779.15
2018-03-01T10:40:41.348Z,97787.27
2018-03-01T10:43:11.201Z,97782.56
2018-03-01T10:45:39.491Z,97785.39
2018-03-01T10:48:08.761Z,97781.27
2018-03-01T10:50:37.156Z,97777.44
2018-03-01T10:53:05.650Z,97776.36
2018-03-01T10:55:33.926Z,97772.82
2018-03-01T10:58:02.263Z,97776.17
2018-03-01T11:00:36.309Z,97774.70
2018-03-01T11:03:05.560Z,97771.94
2018-03-01T11:05:37.347Z,97761.50
2018-03-01T11:08:05.689Z,97760.08
2018-03-01T11:10:33.995Z,97757.38
2018-03-01T11:13:02.292Z,97761.56
2018-03-01T11:15:30.639Z,97765.53
2018-03-01T11:17:58.954Z,97759.17
2018-03-01T11:20:27.250Z,97747.06
2018-03-01T11:22:56.359Z,97747.23
2018-03-01T11:25:24.762Z,97743.20
2018-03-01T11:27:53.218Z,97739.78
2018-03-01T11:30:21.582Z,97735.89
2018-03-01T11:32:49.868Z,97722.68
2018-03-01T11:35:18.244Z,97718.55
2018-03-01T11:37:46.554Z,97716.19
2018-03-01T11:40:16.347Z,97702.70
2018-03-01T11:42:45.712Z,97708.67
2018-03-01T11:45:14.039Z,97710.98
2018-03-01T11:47:42.374Z,97693.80
2018-03-01T11:50:11.058Z,97707.97
2018-03-01T11:52:39.390Z,97679.66
2018-03-01T11:55:07.675Z,97672.10
2018-03-01T11:57:35.965Z,97670.83
2018-03-01T12:00:05.845Z,97664.98
2018-03-01T12:02:34.180Z,97662.27
2018-03-01T12:05:02.513Z,97654.58
2018-03-01T12:07:30.924Z,97654.39
2018-03-01T12:09:59.846Z,97647.83
2018-03-01T12:12:28.124Z,97659.35
2018-03-01T12:14:57.708Z,97655.85
2018-03-01T12:17:26.031Z,97641.43
2018-03-01T12:19:54.333Z,97638.45
2018-03-01T12:22:23.612Z,97634.44
2018-03-01T12:24:51.935Z,97639.81
2018-03-01T12:27:20.885Z,97622.22
2018-03-01T12:29:49.176Z,97627.47
2018-03-01T12:32:17.470Z,97628.36
2018-03-01T12:34:47.070Z,97610.36
2018-03-01T12:37:15.343Z,97617.13
2018-03-01T12:39:43.604Z,97613.97
2018-03-01T12:42:12.029Z,97608.22
2018-03-01T12:44:40.367Z,97598.37
2018-03-01T12:47:08.680Z,97600.48
2018-03-01T12:49:37.673Z,97603.26
2018-03-01T12:52:06.041Z,97598.56
2018-03-01T12:54:34.688Z,97599.21
2018-03-01T12:57:04.772Z,97597.77
2018-03-01T12:59:33.023Z,97598.73
2018-03-01T13:02:01.900Z,97571.13
2018-03-01T13:04:31.072Z,97588.60
2018-03-01T13:06:59.446Z,97588.33
2018-03-01T13:09:28.722Z,97583.16
2018-03-01T13:11:57.013Z,97577.09
2018-03-01T13:14:26.668Z,97581.00
2018-03-01T13:16:54.921Z,97577.63
2018-03-01T13:19:23.232Z,97572.22
2018-03-01T13:21:51.549Z,97576.38
2018-03-01T13:24:19.875Z,97558.09
2018-03-01T13:26:50.044Z,97566.62
2018-03-01T13:29:18.380Z,97564.47
2018-03-01T13:31:51.995Z,97570.51
2018-03-01T13:37:23.392Z,97579.60
2018-03-01T13:39:51.822Z,97562.14
2018-03-01T13:42:31.092Z,97577.85
2018-03-01T13:44:59.410Z,97564.41
2018-03-01T13:47:33.850Z,97561.47
2018-03-01T13:50:02.102Z,97573.47
2018-03-01T13:52:30.416Z,97563.02
2018-03-01T13:54:58.828Z,97557.70
2018-03-01T13:57:27.335Z,97558.27
2018-03-01T13:59:55.748Z,97547.07
2018-03-01T14:02:24.368Z,97528.17
2018-03-01T14:04:52.745Z,97552.20
2018-03-01T14:07:26.688Z,97543.76
2018-03-01T14:09:55.087Z,97540.64
2018-03-01T14:15:26.448Z,97541.70
2018-03-01T14:17:59.674Z,97536.52
2018-03-01T14:20:34.744Z,97532.55
2018-03-01T14:23:06.985Z,97535.00
2018-03-01T14:25:38.756Z,97538.27
2018-03-01T14:28:24.836Z,97523.17
2018-03-01T14:30:53.190Z,97528.25
2018-03-01T14:33:21.459Z,97523.05
2018-03-01T14:35:49.780Z,97509.62
2018-03-01T14:38:18.052Z,97502.45
2018-03-01T14:40:46.536Z,97491.67
2018-03-01T14:43:14.820Z,97494.44
2018-03-01T14:45:43.158Z,97486.00
2018-03-01T14:48:11.454Z,97486.88
2018-03-01T14:50:39.761Z,97491.69
2018-03-01T14:53:08.041Z,97492.13
2018-03-01T14:55:36.512Z,97486.42
2018-03-01T14:58:06.605Z,97454.06
2018-03-01T15:00:34.947Z,97487.14
2018-03-01T15:03:03.371Z,97466.16
2018-03-01T15:05:31.630Z,97465.63
2018-03-01T15:08:00.535Z,97462.47
2018-03-01T15:10:28.856Z,97473.15
2018-03-01T15:12:57.199Z,97461.34
2018-03-01T15:15:25.522Z,97465.87
2018-03-01T15:17:53.846Z,97451.66
2018-03-01T15:20:22.219Z,97441.61
2018-03-01T15:22:50.603Z,97446.08
2018-03-01T15:25:20.506Z,97441.81
2018-03-01T15:27:48.860Z,97464.14
2018-03-01T15:30:17.164Z,97452.30
2018-03-01T15:32:45.571Z,97455.60
2018-03-01T15:35:13.900Z,97447.54
2018-03-01T15:37:42.375Z,97443.34
2018-03-01T15:40:10.648Z,97442.89
2018-03-01T15:42:38.953Z,97438.20
2018-03-01T15:45:07.238Z,97435.69
2018-03-01T15:47:35.566Z,97439.00
2018-03-01T15:50:04.356Z,97414.72
2018-03-01T15:52:32.680Z,97416.56
2018-03-01T15:55:01.019Z,97437.05
2018-03-01T15:57:29.384Z,97443.87
2018-03-01T15:59:57.673Z,97431.11
2018-03-01T16:02:25.989Z,97424.17
2018-03-01T16:04:54.300Z,97448.53
2018-03-01T16:07:22.608Z,97450.09
2018-03-01T16:09:51.210Z,97459.39
2018-03-01T16:12:19.673Z,97455.96
2018-03-01T16:14:48.000Z,97449.59
2018-03-01T16:17:16.276Z,97454.61
2018-03-01T16:19:44.669Z,97457.95
2018-03-01T16:22:12.931Z,97454.09
2018-03-01T16:24:41.283Z,97449.08
2018-03-01T16:27:09.564Z,97441.13
2018-03-01T16:29:37.935Z,97446.20
2018-03-01T16:32:06.221Z,97443.73
2018-03-01T16:34:34.653Z,97452.63
2018-03-01T16:37:02.992Z,97452.30
2018-03-01T16:39:31.333Z,97459.91
2018-03-01T16:41:59.651Z,97456.67
2018-03-01T16:44:28.570Z,97435.86
2018-03-01T16:46:56.888Z,97442.23
2018-03-01T16:49:25.231Z,97443.68
2018-03-01T16:51:53.650Z,97443.28
2018-03-01T16:54:22.011Z,97426.17
2018-03-01T16:56:50.359Z,97445.60
2018-03-01T16:59:18.614Z,97434.05
2018-03-01T17:01:47.265Z,97434.39
2018-03-01T17:04:15.606Z,97433.00
2018-03-01T17:06:44.558Z,97434.45
2018-03-01T17:09:13.141Z,97421.02
2018-03-01T17:11:41.435Z,97423.59
2018-03-01T17:14:09.788Z,97414.47
2018-03-01T17:16:38.073Z,97420.29
2018-03-01T17:19:06.360Z,97417.63
2018-03-01T17:21:34.650Z,97415.77
2018-03-01T17:24:03.638Z,97407.27
2018-03-01T17:26:32.005Z,97417.48
2018-03-01T17:29:00.279Z,97410.09
2018-03-01T17:31:28.596Z,97419.72
2018-03-01T17:33:56.945Z,97421.05
2018-03-01T17:36:25.281Z,97415.78
2018-03-01T17:38:53.584Z,97409.67
2018-03-01T17:41:22.536Z,97401.52
2018-03-01T17:43:50.895Z,97409.98
2018-03-01T17:46:19.216Z,97417.22
2018-03-01T17:48:47.512Z,97417.39
2018-03-01T17:51:15.908Z,97405.94
2018-03-01T17:53:44.232Z,97407.83
2018-03-01T17:56:12.517Z,97413.23
2018-03-01T17:58:40.815Z,97413.98
2018-03-01T18:01:09.072Z,97418.34
2018-03-01T18:03:37.461Z,97416.27
2018-03-01T18:06:05.725Z,97412.64
2018-03-01T18:08:34.041Z,97426.86
2018-03-01T18:11:02.317Z,97425.95
2018-03-01T18:13:31.416Z,97420.00
2018-03-01T18:15:59.724Z,97421.51
2018-03-01T18:18:28.009Z,97421.39
2018-03-01T18:20:56.394Z,97418.93
2018-03-01T18:23:24.683Z,97419.19
2018-03-01T18:25:53.061Z,97416.23
2018-03-01T18:28:21.338Z,97419.78
2018-03-01T18:30:49.856Z,97408.38
2018-03-01T18:33:18.177Z,97411.84
2018-03-01T18:35:46.478Z,97406.64
2018-03-01T18:38:14.765Z,97403.05
2018-03-01T18:40:43.074Z,97404.32
2018-03-01T18:43:11.340Z,97401.23
2018-03-01T18:45:39.733Z,97407.01
2018-03-01T18:48:08.063Z,97400.13
2018-03-01T18:50:36.357Z,97394.60
2018-03-01T18:53:05.008Z,97398.59
2018-03-01T18:55:33.836Z,97391.50
2018-03-01T18:58:02.134Z,97389.91
2018-03-01T19:00:30.427Z,97397.48
2018-03-01T19:02:59.063Z,97387.84
2018-03-01T19:05:27.332Z,97390.92
2018-03-01T19:07:55.655Z,97393.39
2018-03-01T19:10:23.973Z,97392.57
2018-03-01T19:12:52.263Z,97392.31
2018-03-01T19:15:20.532Z,97389.78
2018-03-01T19:17:48.833Z,97385.66
2018-03-01T19:20:17.154Z,97378.17
2018-03-01T19:22:46.352Z,97371.70
2018-03-01T19:25:14.621Z,97347.81
2018-03-01T19:27:42.953Z,97350.14
2018-03-01T19:30:11.208Z,97356.58
2018-03-01T19:32:39.504Z,97357.94
2018-03-01T19:35:08.077Z,97349.48
2018-03-01T19:37:36.364Z,97344.20
2018-03-01T19:40:05.273Z,97341.77
2018-03-01T19:42:33.572Z,97346.31
2018-03-01T19:45:01.904Z,97355.53
2018-03-01T19:47:30.162Z,97365.13
2018-03-01T19:49:58.508Z,97359.29
2018-03-01T19:52:26.836Z,97347.75
2018-03-01T19:54:55.209Z,97345.02
2018-03-01T19:57:23.524Z,97341.37
2018-03-01T19:59:51.814Z,97341.61
2018-03-01T20:02:20.108Z,97336.25
2018-03-01T20:04:48.478Z,97344.94
2018-03-01T20:07:16.726Z,97342.88
2018-03-01T20:09:45.084Z,97342.59
2018-03-01T20:12:18.951Z,97346.98
2018-03-01T20:14:48.003Z,97345.30
2018-03-01T20:17:24.478Z,97343.97
2018-03-01T20:19:52.771Z,97344.42
2018-03-01T20:22:21.114Z,97352.18
2018-03-01T20:24:49.368Z,97351.95
2018-03-01T20:27:17.677Z,97353.04
2018-03-01T20:29:45.957Z,97348.48
2018-03-01T20:32:14.308Z,97351.39
2018-03-01T20:34:42.591Z,97353.83
2018-03-01T20:37:10.878Z,97356.83
2018-03-01T20:39:39.186Z,97350.34
2018-03-01T20:42:07.505Z,97348.45
2018-03-01T20:44:35.808Z,97352.58
2018-03-01T20:47:04.112Z,97347.52
2018-03-01T20:49:32.421Z,97350.81
2018-03-01T20:52:01.005Z,97342.30
2018-03-01T20:54:29.282Z,97334.31
2018-03-01T20:56:57.648Z,97336.05
2018-03-01T20:59:25.936Z,97340.48
2018-03-01T21:01:56.935Z,97329.26
2018-03-01T21:04:25.257Z,97334.70
2018-03-01T21:06:53.535Z,97328.60
2018-03-01T21:09:21.948Z,97328.53
2018-03-01T21:11:50.246Z,97323.48
2018-03-01T21:14:18.544Z,97318.56
2018-03-01T21:16:46.836Z,97321.67
2018-03-01T21:19:15.136Z,97320.41
2018-03-01T21:21:43.461Z,97320.52
2018-03-01T21:24:11.748Z,97316.69
2018-03-01T21:26:40.107Z,97315.81
2018-03-01T21:29:08.395Z,97316.06
2018-03-01T21:31:36.723Z,97315.13
2018-03-01T21:34:05.105Z,97307.41
2018-03-01T21:36:33.418Z,97307.08
2018-03-01T21:39:02.054Z,97316.58
2018-03-01T21:41:30.346Z,97313.72
2018-03-01T21:43:58.637Z,97306.14
2018-03-01T21:46:26.928Z,97288.34
2018-03-01T21:48:55.251Z,97297.48
2018-03-01T21:51:23.503Z,97296.07
2018-03-01T21:53:51.824Z,97305.88
2018-03-01T21:56:20.103Z,97291.98
2018-03-01T21:58:48.409Z,97282.81
2018-03-01T22:01:16.689Z,97281.63
2018-03-01T22:03:45.002Z,97277.44
2018-03-01T22:06:13.294Z,97283.83
2018-03-01T22:08:41.634Z,97285.92
2018-03-01T22:11:09.940Z,97291.30
2018-03-01T22:13:38.332Z,97293.62
2018-03-01T22:16:06.625Z,97276.69
2018-03-01T22:18:34.988Z,97277.23
2018-03-01T22:21:03.324Z,97272.10
2018-03-01T22:23:31.588Z,97280.97
2018-03-01T22:25:59.897Z,97294.55
2018-03-01T22:28:28.191Z,97299.12
2018-03-01T22:30:57.983Z,97297.43
2018-03-01T22:33:26.289Z,97299.25
2018-03-01T22:35:54.653Z,97300.21
2018-03-01T22:38:22.948Z,97295.64
2018-03-01T22:40:51.245Z,97293.44
2018-03-01T22:43:19.532Z,97291.84
2018-03-01T22:45:47.838Z,97287.87
2018-03-01T22:48:16.125Z,97277.55
2018-03-01T22:50:44.518Z,97273.33
2018-03-01T22:53:12.823Z,97277.41
2018-03-01T22:55:41.121Z,97273.43
2018-03-01T22:58:09.433Z,97268.45
2018-03-01T23:00:49.423Z,97266.58
2018-03-01T23:03:17.736Z,97271.63
2018-03-01T23:05:46.036Z,97268.20
2018-03-01T23:08:15.169Z,97266.50
2018-03-01T23:10:43.461Z,97266.94
2018-03-01T23:13:11.767Z,97260.52
2018-03-01T23:15:40.024Z,97263.40
2018-03-01T23:18:08.344Z,97260.84
2018-03-01T23:20:36.636Z,97257.52
2018-03-01T23:23:04.907Z,97259.58
2018-03-01T23:25:33.191Z,97263.03
2018-03-01T23:28:01.487Z,97258.88
2018-03-01T23:30:29.795Z,97251.75
2018-03-01T23:32:58.067Z,97252.58
2018-03-01T23:35:26.366Z,97253.44
2018-03-01T23:37:54.645Z,97257.48
2018-03-01T23:40:22.968Z,97253.06
2018-03-01T23:42:51.546Z,97242.56
2018-03-01T23:45:19.832Z,97234.26
2018-03-01T23:47:48.115Z,97224.63
2018-03-01T23:50:16.419Z,97218.02
2018-03-01T23:52:44.717Z,97209.07
2018-03-01T23:55:13.000Z,97183.67
2018-03-01T23:57:41.292Z,97199.59
